sensor_id;sensor_type;location;lat;lon;timestamp;P1;durP1;ratioP1;P2;durP2;ratioP2
66270;SDS011;53063;39.614;8.814;2024-02-04T00:00:44;6.15;;;2.42;;
66270;SDS011;53063;39.614;8.814;2024-02-04T00:03:10;4.05;;;2.42;;
66270;SDS011;53063;39.614;8.814;2024-02-04T00:05:36;2.63;;;1.77;;
66270;SDS011;53063;39.614;8.814;2024-02-04T00:08:02;5.40;;;2.35;;
66270;SDS011;53063;39.614;8.814;2024-02-04T00:10:28;5.50;;;2.38;;
66270;SDS011;53063;39.614;8.814;2024-02-04T00:12:54;3.08;;;2.13;;
66270;SDS011;53063;39.614;8.814;2024-02-04T00:15:21;5.30;;;2.33;;
66270;SDS011;53063;39.614;8.814;2024-02-04T00:17:47;5.68;;;2.08;;
66270;SDS011;53063;39.614;8.814;2024-02-04T00:20:13;7.35;;;2.58;;
66270;SDS011;53063;39.614;8.814;2024-02-04T00:22:39;3.80;;;1.85;;
66270;SDS011;53063;39.614;8.814;2024-02-04T00:25:05;4.28;;;2.17;;
66270;SDS011;53063;39.614;8.814;2024-02-04T00:27:31;7.05;;;2.35;;
66270;SDS011;53063;39.614;8.814;2024-02-04T00:29:58;3.45;;;2.15;;
66270;SDS011;53063;39.614;8.814;2024-02-04T00:32:24;8.82;;;2.55;;
66270;SDS011;53063;39.614;8.814;2024-02-04T00:34:51;4.35;;;2.40;;
66270;SDS011;53063;39.614;8.814;2024-02-04T00:37:17;5.65;;;2.70;;
66270;SDS011;53063;39.614;8.814;2024-02-04T00:39:43;4.75;;;2.40;;
66270;SDS011;53063;39.614;8.814;2024-02-04T00:42:09;6.35;;;2.45;;
66270;SDS011;53063;39.614;8.814;2024-02-04T00:44:35;8.30;;;2.95;;
66270;SDS011;53063;39.614;8.814;2024-02-04T00:47:01;3.85;;;2.30;;
66270;SDS011;53063;39.614;8.814;2024-02-04T00:49:28;6.50;;;3.08;;
66270;SDS011;53063;39.614;8.814;2024-02-04T00:51:54;8.45;;;2.67;;
66270;SDS011;53063;39.614;8.814;2024-02-04T00:54:20;7.18;;;2.90;;
66270;SDS011;53063;39.614;8.814;2024-02-04T00:56:46;5.60;;;2.42;;
66270;SDS011;53063;39.614;8.814;2024-02-04T00:59:11;10.13;;;3.08;;
66270;SDS011;53063;39.614;8.814;2024-02-04T01:01:38;5.32;;;2.75;;
66270;SDS011;53063;39.614;8.814;2024-02-04T01:04:04;7.53;;;2.40;;
66270;SDS011;53063;39.614;8.814;2024-02-04T01:06:30;4.60;;;2.45;;
66270;SDS011;53063;39.614;8.814;2024-02-04T01:08:56;7.20;;;1.90;;
66270;SDS011;53063;39.614;8.814;2024-02-04T01:11:22;9.60;;;2.70;;
66270;SDS011;53063;39.614;8.814;2024-02-04T01:13:48;3.15;;;1.95;;
66270;SDS011;53063;39.614;8.814;2024-02-04T01:16:14;3.92;;;1.95;;
66270;SDS011;53063;39.614;8.814;2024-02-04T01:18:40;3.40;;;2.10;;
66270;SDS011;53063;39.614;8.814;2024-02-04T01:21:06;6.55;;;2.00;;
66270;SDS011;53063;39.614;8.814;2024-02-04T01:23:33;3.05;;;1.95;;
66270;SDS011;53063;39.614;8.814;2024-02-04T01:26:00;3.10;;;1.70;;
66270;SDS011;53063;39.614;8.814;2024-02-04T01:28:26;3.38;;;1.77;;
66270;SDS011;53063;39.614;8.814;2024-02-04T01:30:52;4.07;;;1.55;;
66270;SDS011;53063;39.614;8.814;2024-02-04T01:33:17;2.85;;;1.58;;
66270;SDS011;53063;39.614;8.814;2024-02-04T01:35:43;2.97;;;1.52;;
66270;SDS011;53063;39.614;8.814;2024-02-04T01:38:09;4.90;;;1.60;;
66270;SDS011;53063;39.614;8.814;2024-02-04T01:40:35;4.85;;;1.65;;
66270;SDS011;53063;39.614;8.814;2024-02-04T01:43:01;5.30;;;1.90;;
66270;SDS011;53063;39.614;8.814;2024-02-04T01:45:27;4.43;;;1.70;;
66270;SDS011;53063;39.614;8.814;2024-02-04T01:47:53;2.05;;;1.23;;
66270;SDS011;53063;39.614;8.814;2024-02-04T01:50:20;2.95;;;1.55;;
66270;SDS011;53063;39.614;8.814;2024-02-04T01:52:46;5.32;;;2.20;;
66270;SDS011;53063;39.614;8.814;2024-02-04T01:55:14;4.72;;;1.85;;
66270;SDS011;53063;39.614;8.814;2024-02-04T01:57:40;3.42;;;1.80;;
66270;SDS011;53063;39.614;8.814;2024-02-04T02:00:07;5.82;;;2.08;;
66270;SDS011;53063;39.614;8.814;2024-02-04T02:02:34;5.40;;;2.78;;
66270;SDS011;53063;39.614;8.814;2024-02-04T02:05:05;4.30;;;2.47;;
66270;SDS011;53063;39.614;8.814;2024-02-04T02:07:31;5.35;;;2.70;;
66270;SDS011;53063;39.614;8.814;2024-02-04T02:09:57;7.13;;;3.47;;
66270;SDS011;53063;39.614;8.814;2024-02-04T02:12:24;5.80;;;2.67;;
66270;SDS011;53063;39.614;8.814;2024-02-04T02:15:04;3.80;;;2.33;;
66270;SDS011;53063;39.614;8.814;2024-02-04T02:17:41;8.95;;;2.70;;
66270;SDS011;53063;39.614;8.814;2024-02-04T02:20:20;3.53;;;2.20;;
66270;SDS011;53063;39.614;8.814;2024-02-04T02:23:07;7.10;;;2.25;;
66270;SDS011;53063;39.614;8.814;2024-02-04T02:25:39;4.72;;;2.00;;
66270;SDS011;53063;39.614;8.814;2024-02-04T02:28:06;3.50;;;1.63;;
66270;SDS011;53063;39.614;8.814;2024-02-04T02:30:32;9.07;;;1.35;;
66270;SDS011;53063;39.614;8.814;2024-02-04T02:32:58;5.20;;;1.20;;
66270;SDS011;53063;39.614;8.814;2024-02-04T02:35:25;5.35;;;1.20;;
66270;SDS011;53063;39.614;8.814;2024-02-04T02:40:49;5.07;;;1.77;;
66270;SDS011;53063;39.614;8.814;2024-02-04T02:43:19;3.77;;;1.63;;
66270;SDS011;53063;39.614;8.814;2024-02-04T02:45:46;5.72;;;1.30;;
66270;SDS011;53063;39.614;8.814;2024-02-04T02:48:13;1.80;;;1.17;;
66270;SDS011;53063;39.614;8.814;2024-02-04T02:50:39;4.38;;;1.55;;
66270;SDS011;53063;39.614;8.814;2024-02-04T02:53:05;6.93;;;1.23;;
66270;SDS011;53063;39.614;8.814;2024-02-04T02:55:31;5.47;;;1.45;;
66270;SDS011;53063;39.614;8.814;2024-02-04T02:57:57;5.60;;;1.15;;
66270;SDS011;53063;39.614;8.814;2024-02-04T03:00:23;7.32;;;1.55;;
66270;SDS011;53063;39.614;8.814;2024-02-04T03:02:49;7.50;;;1.50;;
66270;SDS011;53063;39.614;8.814;2024-02-04T03:05:15;3.78;;;1.60;;
66270;SDS011;53063;39.614;8.814;2024-02-04T03:07:41;7.07;;;1.55;;
66270;SDS011;53063;39.614;8.814;2024-02-04T03:10:08;5.05;;;1.23;;
66270;SDS011;53063;39.614;8.814;2024-02-04T03:12:34;1.92;;;1.20;;
66270;SDS011;53063;39.614;8.814;2024-02-04T03:15:00;8.90;;;1.65;;
66270;SDS011;53063;39.614;8.814;2024-02-04T03:17:26;4.38;;;1.48;;
66270;SDS011;53063;39.614;8.814;2024-02-04T03:19:52;6.82;;;1.70;;
66270;SDS011;53063;39.614;8.814;2024-02-04T03:22:20;3.60;;;1.40;;
66270;SDS011;53063;39.614;8.814;2024-02-04T03:24:50;5.57;;;3.38;;
66270;SDS011;53063;39.614;8.814;2024-02-04T03:27:16;12.07;;;5.85;;
66270;SDS011;53063;39.614;8.814;2024-02-04T03:29:44;6.30;;;4.05;;
66270;SDS011;53063;39.614;8.814;2024-02-04T03:32:10;6.07;;;3.58;;
66270;SDS011;53063;39.614;8.814;2024-02-04T03:34:37;7.25;;;2.78;;
66270;SDS011;53063;39.614;8.814;2024-02-04T03:37:05;3.03;;;1.90;;
66270;SDS011;53063;39.614;8.814;2024-02-04T03:39:31;5.68;;;1.58;;
66270;SDS011;53063;39.614;8.814;2024-02-04T03:41:57;4.40;;;1.90;;
66270;SDS011;53063;39.614;8.814;2024-02-04T03:44:23;4.28;;;1.73;;
66270;SDS011;53063;39.614;8.814;2024-02-04T03:46:49;7.75;;;1.70;;
66270;SDS011;53063;39.614;8.814;2024-02-04T03:49:16;3.75;;;1.35;;
66270;SDS011;53063;39.614;8.814;2024-02-04T03:51:42;3.60;;;1.38;;
66270;SDS011;53063;39.614;8.814;2024-02-04T03:54:09;5.13;;;1.58;;
66270;SDS011;53063;39.614;8.814;2024-02-04T03:56:35;5.40;;;1.40;;
66270;SDS011;53063;39.614;8.814;2024-02-04T03:59:01;3.80;;;1.27;;
66270;SDS011;53063;39.614;8.814;2024-02-04T04:01:27;2.15;;;1.45;;
66270;SDS011;53063;39.614;8.814;2024-02-04T04:03:53;5.45;;;1.38;;
66270;SDS011;53063;39.614;8.814;2024-02-04T04:06:19;2.28;;;1.38;;
66270;SDS011;53063;39.614;8.814;2024-02-04T04:08:45;3.85;;;1.38;;
66270;SDS011;53063;39.614;8.814;2024-02-04T04:11:10;4.90;;;1.52;;
66270;SDS011;53063;39.614;8.814;2024-02-04T04:13:37;3.40;;;1.50;;
66270;SDS011;53063;39.614;8.814;2024-02-04T04:16:03;5.07;;;1.55;;
66270;SDS011;53063;39.614;8.814;2024-02-04T04:18:31;6.28;;;2.13;;
66270;SDS011;53063;39.614;8.814;2024-02-04T04:20:57;2.95;;;1.38;;
66270;SDS011;53063;39.614;8.814;2024-02-04T04:23:23;2.13;;;1.48;;
66270;SDS011;53063;39.614;8.814;2024-02-04T04:25:49;5.88;;;1.60;;
66270;SDS011;53063;39.614;8.814;2024-02-04T04:28:15;6.43;;;1.60;;
66270;SDS011;53063;39.614;8.814;2024-02-04T04:30:41;3.67;;;1.55;;
66270;SDS011;53063;39.614;8.814;2024-02-04T04:33:06;5.68;;;1.30;;
66270;SDS011;53063;39.614;8.814;2024-02-04T04:35:33;3.70;;;1.20;;
66270;SDS011;53063;39.614;8.814;2024-02-04T04:37:59;3.42;;;1.85;;
66270;SDS011;53063;39.614;8.814;2024-02-04T04:40:25;3.42;;;1.60;;
66270;SDS011;53063;39.614;8.814;2024-02-04T04:42:51;5.55;;;1.40;;
66270;SDS011;53063;39.614;8.814;2024-02-04T04:45:17;4.60;;;1.70;;
66270;SDS011;53063;39.614;8.814;2024-02-04T04:47:43;2.65;;;1.50;;
66270;SDS011;53063;39.614;8.814;2024-02-04T04:50:09;3.42;;;1.90;;
66270;SDS011;53063;39.614;8.814;2024-02-04T04:52:35;5.32;;;1.73;;
66270;SDS011;53063;39.614;8.814;2024-02-04T04:55:01;4.25;;;1.58;;
66270;SDS011;53063;39.614;8.814;2024-02-04T04:57:27;3.60;;;1.27;;
66270;SDS011;53063;39.614;8.814;2024-02-04T04:59:53;6.88;;;1.77;;
66270;SDS011;53063;39.614;8.814;2024-02-04T05:02:19;4.90;;;1.58;;
66270;SDS011;53063;39.614;8.814;2024-02-04T05:04:45;6.47;;;1.30;;
66270;SDS011;53063;39.614;8.814;2024-02-04T05:07:12;7.80;;;1.80;;
66270;SDS011;53063;39.614;8.814;2024-02-04T05:09:38;3.53;;;1.70;;
66270;SDS011;53063;39.614;8.814;2024-02-04T05:12:06;4.75;;;1.40;;
66270;SDS011;53063;39.614;8.814;2024-02-04T05:14:33;5.05;;;1.92;;
66270;SDS011;53063;39.614;8.814;2024-02-04T05:16:59;4.78;;;1.85;;
66270;SDS011;53063;39.614;8.814;2024-02-04T05:19:25;6.20;;;2.22;;
66270;SDS011;53063;39.614;8.814;2024-02-04T05:21:51;6.50;;;2.60;;
66270;SDS011;53063;39.614;8.814;2024-02-04T05:24:17;8.05;;;2.80;;
66270;SDS011;53063;39.614;8.814;2024-02-04T05:26:43;4.57;;;2.55;;
66270;SDS011;53063;39.614;8.814;2024-02-04T05:29:09;7.55;;;3.25;;
66270;SDS011;53063;39.614;8.814;2024-02-04T05:31:39;5.60;;;2.80;;
66270;SDS011;53063;39.614;8.814;2024-02-04T05:34:09;8.48;;;3.30;;
66270;SDS011;53063;39.614;8.814;2024-02-04T05:36:35;7.57;;;3.40;;
66270;SDS011;53063;39.614;8.814;2024-02-04T05:39:10;7.82;;;3.03;;
66270;SDS011;53063;39.614;8.814;2024-02-04T05:41:37;7.85;;;3.22;;
66270;SDS011;53063;39.614;8.814;2024-02-04T05:44:04;6.72;;;3.22;;
66270;SDS011;53063;39.614;8.814;2024-02-04T05:46:30;10.18;;;4.38;;
66270;SDS011;53063;39.614;8.814;2024-02-04T05:48:56;7.80;;;3.40;;
66270;SDS011;53063;39.614;8.814;2024-02-04T05:51:22;6.82;;;3.75;;
66270;SDS011;53063;39.614;8.814;2024-02-04T05:53:48;9.65;;;3.92;;
66270;SDS011;53063;39.614;8.814;2024-02-04T05:56:13;7.15;;;3.70;;
66270;SDS011;53063;39.614;8.814;2024-02-04T05:58:39;7.28;;;3.22;;
66270;SDS011;53063;39.614;8.814;2024-02-04T06:01:05;8.00;;;4.00;;
66270;SDS011;53063;39.614;8.814;2024-02-04T06:03:31;6.15;;;3.25;;
66270;SDS011;53063;39.614;8.814;2024-02-04T06:05:57;9.65;;;3.75;;
66270;SDS011;53063;39.614;8.814;2024-02-04T06:08:23;9.68;;;4.30;;
66270;SDS011;53063;39.614;8.814;2024-02-04T06:10:49;9.57;;;4.10;;
66270;SDS011;53063;39.614;8.814;2024-02-04T06:13:15;7.72;;;3.47;;
66270;SDS011;53063;39.614;8.814;2024-02-04T06:15:41;7.25;;;4.60;;
66270;SDS011;53063;39.614;8.814;2024-02-04T06:18:07;7.78;;;4.22;;
66270;SDS011;53063;39.614;8.814;2024-02-04T06:20:33;11.82;;;4.30;;
66270;SDS011;53063;39.614;8.814;2024-02-04T06:22:59;11.65;;;4.45;;
66270;SDS011;53063;39.614;8.814;2024-02-04T06:25:26;10.15;;;4.28;;
66270;SDS011;53063;39.614;8.814;2024-02-04T06:27:51;11.82;;;5.40;;
66270;SDS011;53063;39.614;8.814;2024-02-04T06:30:17;12.90;;;4.97;;
66270;SDS011;53063;39.614;8.814;2024-02-04T06:32:43;11.35;;;4.22;;
66270;SDS011;53063;39.614;8.814;2024-02-04T06:35:09;8.30;;;3.85;;
66270;SDS011;53063;39.614;8.814;2024-02-04T06:37:35;8.93;;;4.20;;
66270;SDS011;53063;39.614;8.814;2024-02-04T06:40:01;8.63;;;3.72;;
66270;SDS011;53063;39.614;8.814;2024-02-04T06:42:27;9.02;;;3.72;;
66270;SDS011;53063;39.614;8.814;2024-02-04T06:44:53;11.90;;;4.07;;
66270;SDS011;53063;39.614;8.814;2024-02-04T06:47:19;12.27;;;4.72;;
66270;SDS011;53063;39.614;8.814;2024-02-04T06:49:45;9.90;;;3.75;;
66270;SDS011;53063;39.614;8.814;2024-02-04T06:52:11;9.30;;;3.83;;
66270;SDS011;53063;39.614;8.814;2024-02-04T06:54:37;12.13;;;4.50;;
66270;SDS011;53063;39.614;8.814;2024-02-04T06:57:03;11.57;;;5.50;;
66270;SDS011;53063;39.614;8.814;2024-02-04T06:59:29;13.23;;;5.78;;
66270;SDS011;53063;39.614;8.814;2024-02-04T07:01:54;11.60;;;4.43;;
66270;SDS011;53063;39.614;8.814;2024-02-04T07:04:20;13.15;;;5.15;;
66270;SDS011;53063;39.614;8.814;2024-02-04T07:06:47;9.13;;;4.65;;
66270;SDS011;53063;39.614;8.814;2024-02-04T07:09:13;8.23;;;4.53;;
66270;SDS011;53063;39.614;8.814;2024-02-04T07:11:39;11.30;;;5.32;;
66270;SDS011;53063;39.614;8.814;2024-02-04T07:14:05;8.18;;;4.82;;
66270;SDS011;53063;39.614;8.814;2024-02-04T07:16:31;7.35;;;3.90;;
66270;SDS011;53063;39.614;8.814;2024-02-04T07:18:57;7.32;;;4.13;;
66270;SDS011;53063;39.614;8.814;2024-02-04T07:21:23;8.00;;;3.55;;
66270;SDS011;53063;39.614;8.814;2024-02-04T07:23:49;6.93;;;3.25;;
66270;SDS011;53063;39.614;8.814;2024-02-04T07:26:15;11.00;;;4.18;;
66270;SDS011;53063;39.614;8.814;2024-02-04T07:28:41;8.38;;;3.40;;
66270;SDS011;53063;39.614;8.814;2024-02-04T07:31:07;6.10;;;3.10;;
66270;SDS011;53063;39.614;8.814;2024-02-04T07:33:32;7.43;;;3.85;;
66270;SDS011;53063;39.614;8.814;2024-02-04T07:35:58;9.27;;;4.13;;
66270;SDS011;53063;39.614;8.814;2024-02-04T07:38:24;9.15;;;3.90;;
66270;SDS011;53063;39.614;8.814;2024-02-04T07:40:50;9.10;;;3.08;;
66270;SDS011;53063;39.614;8.814;2024-02-04T07:43:16;5.65;;;3.00;;
66270;SDS011;53063;39.614;8.814;2024-02-04T07:45:42;7.50;;;3.53;;
66270;SDS011;53063;39.614;8.814;2024-02-04T07:48:08;9.02;;;3.10;;
66270;SDS011;53063;39.614;8.814;2024-02-04T07:50:34;12.15;;;4.18;;
66270;SDS011;53063;39.614;8.814;2024-02-04T07:53:00;7.43;;;4.07;;
66270;SDS011;53063;39.614;8.814;2024-02-04T07:55:26;6.25;;;3.38;;
66270;SDS011;53063;39.614;8.814;2024-02-04T07:57:52;10.40;;;4.50;;
66270;SDS011;53063;39.614;8.814;2024-02-04T08:00:18;13.75;;;5.50;;
66270;SDS011;53063;39.614;8.814;2024-02-04T08:02:44;10.15;;;5.32;;
66270;SDS011;53063;39.614;8.814;2024-02-04T08:05:10;10.25;;;4.22;;
66270;SDS011;53063;39.614;8.814;2024-02-04T08:07:36;9.85;;;4.30;;
66270;SDS011;53063;39.614;8.814;2024-02-04T08:10:02;18.90;;;9.48;;
66270;SDS011;53063;39.614;8.814;2024-02-04T08:12:28;28.65;;;14.02;;
66270;SDS011;53063;39.614;8.814;2024-02-04T08:14:54;18.67;;;7.22;;
66270;SDS011;53063;39.614;8.814;2024-02-04T08:17:20;10.40;;;5.15;;
66270;SDS011;53063;39.614;8.814;2024-02-04T08:19:46;18.63;;;6.38;;
66270;SDS011;53063;39.614;8.814;2024-02-04T08:22:12;9.70;;;4.63;;
66270;SDS011;53063;39.614;8.814;2024-02-04T08:24:38;11.98;;;5.57;;
66270;SDS011;53063;39.614;8.814;2024-02-04T08:27:04;11.18;;;3.13;;
66270;SDS011;53063;39.614;8.814;2024-02-04T08:29:30;8.93;;;4.07;;
66270;SDS011;53063;39.614;8.814;2024-02-04T08:31:56;14.60;;;5.65;;
66270;SDS011;53063;39.614;8.814;2024-02-04T08:34:22;8.50;;;5.05;;
66270;SDS011;53063;39.614;8.814;2024-02-04T08:36:51;13.27;;;5.88;;
66270;SDS011;53063;39.614;8.814;2024-02-04T08:39:17;8.77;;;4.55;;
66270;SDS011;53063;39.614;8.814;2024-02-04T08:41:43;14.15;;;7.03;;
66270;SDS011;53063;39.614;8.814;2024-02-04T08:44:09;16.23;;;7.82;;
66270;SDS011;53063;39.614;8.814;2024-02-04T08:46:35;18.65;;;9.23;;
66270;SDS011;53063;39.614;8.814;2024-02-04T08:49:01;17.15;;;8.18;;
66270;SDS011;53063;39.614;8.814;2024-02-04T08:51:27;9.68;;;5.45;;
66270;SDS011;53063;39.614;8.814;2024-02-04T08:53:53;10.48;;;5.03;;
66270;SDS011;53063;39.614;8.814;2024-02-04T08:56:19;11.52;;;5.53;;
66270;SDS011;53063;39.614;8.814;2024-02-04T08:58:45;20.83;;;6.20;;
66270;SDS011;53063;39.614;8.814;2024-02-04T09:01:11;11.02;;;4.18;;
66270;SDS011;53063;39.614;8.814;2024-02-04T09:03:37;7.18;;;3.92;;
66270;SDS011;53063;39.614;8.814;2024-02-04T09:06:03;8.82;;;4.38;;
66270;SDS011;53063;39.614;8.814;2024-02-04T09:08:29;8.73;;;3.47;;
66270;SDS011;53063;39.614;8.814;2024-02-04T09:10:55;6.65;;;3.28;;
66270;SDS011;53063;39.614;8.814;2024-02-04T09:13:22;6.15;;;2.92;;
66270;SDS011;53063;39.614;8.814;2024-02-04T09:15:49;11.05;;;3.83;;
66270;SDS011;53063;39.614;8.814;2024-02-04T09:18:15;7.70;;;3.90;;
66270;SDS011;53063;39.614;8.814;2024-02-04T09:20:41;7.88;;;3.72;;
66270;SDS011;53063;39.614;8.814;2024-02-04T09:23:07;5.38;;;3.03;;
66270;SDS011;53063;39.614;8.814;2024-02-04T09:25:33;9.13;;;3.40;;
66270;SDS011;53063;39.614;8.814;2024-02-04T09:27:59;5.63;;;2.75;;
66270;SDS011;53063;39.614;8.814;2024-02-04T09:30:25;7.60;;;2.83;;
66270;SDS011;53063;39.614;8.814;2024-02-04T09:32:51;9.10;;;4.15;;
66270;SDS011;53063;39.614;8.814;2024-02-04T09:35:17;6.97;;;2.63;;
66270;SDS011;53063;39.614;8.814;2024-02-04T09:37:43;7.47;;;2.55;;
66270;SDS011;53063;39.614;8.814;2024-02-04T09:40:09;7.50;;;2.85;;
66270;SDS011;53063;39.614;8.814;2024-02-04T09:42:35;5.72;;;2.45;;
66270;SDS011;53063;39.614;8.814;2024-02-04T09:45:01;6.97;;;2.83;;
66270;SDS011;53063;39.614;8.814;2024-02-04T09:47:27;8.18;;;3.78;;
66270;SDS011;53063;39.614;8.814;2024-02-04T09:49:54;7.43;;;4.03;;
66270;SDS011;53063;39.614;8.814;2024-02-04T09:52:22;9.85;;;4.72;;
66270;SDS011;53063;39.614;8.814;2024-02-04T09:54:55;10.45;;;3.45;;
66270;SDS011;53063;39.614;8.814;2024-02-04T09:57:25;7.97;;;3.17;;
66270;SDS011;53063;39.614;8.814;2024-02-04T09:59:51;6.00;;;3.30;;
66270;SDS011;53063;39.614;8.814;2024-02-04T10:02:17;9.27;;;2.97;;
66270;SDS011;53063;39.614;8.814;2024-02-04T10:04:45;7.35;;;3.88;;
66270;SDS011;53063;39.614;8.814;2024-02-04T10:07:10;8.60;;;4.05;;
66270;SDS011;53063;39.614;8.814;2024-02-04T10:09:39;8.32;;;3.72;;
66270;SDS011;53063;39.614;8.814;2024-02-04T10:12:05;9.15;;;4.95;;
66270;SDS011;53063;39.614;8.814;2024-02-04T10:14:33;10.55;;;5.45;;
66270;SDS011;53063;39.614;8.814;2024-02-04T10:16:59;8.65;;;4.18;;
66270;SDS011;53063;39.614;8.814;2024-02-04T10:19:25;6.15;;;3.00;;
66270;SDS011;53063;39.614;8.814;2024-02-04T10:22:00;10.50;;;4.95;;
66270;SDS011;53063;39.614;8.814;2024-02-04T10:24:27;5.55;;;2.30;;
66270;SDS011;53063;39.614;8.814;2024-02-04T10:26:56;8.20;;;3.22;;
66270;SDS011;53063;39.614;8.814;2024-02-04T10:29:23;9.10;;;3.38;;
66270;SDS011;53063;39.614;8.814;2024-02-04T10:31:55;6.50;;;2.88;;
66270;SDS011;53063;39.614;8.814;2024-02-04T10:34:26;3.50;;;1.80;;
66270;SDS011;53063;39.614;8.814;2024-02-04T10:36:53;6.15;;;2.90;;
66270;SDS011;53063;39.614;8.814;2024-02-04T10:39:19;3.75;;;1.73;;
66270;SDS011;53063;39.614;8.814;2024-02-04T10:41:48;3.30;;;2.63;;
66270;SDS011;53063;39.614;8.814;2024-02-04T10:44:22;3.88;;;1.90;;
66270;SDS011;53063;39.614;8.814;2024-02-04T10:46:50;6.53;;;3.20;;
66270;SDS011;53063;39.614;8.814;2024-02-04T10:49:17;3.35;;;2.40;;
66270;SDS011;53063;39.614;8.814;2024-02-04T10:51:45;3.80;;;2.58;;
66270;SDS011;53063;39.614;8.814;2024-02-04T10:54:11;7.65;;;2.75;;
66270;SDS011;53063;39.614;8.814;2024-02-04T10:56:44;3.75;;;2.05;;
66270;SDS011;53063;39.614;8.814;2024-02-04T10:59:11;6.45;;;3.33;;
66270;SDS011;53063;39.614;8.814;2024-02-04T11:01:43;8.27;;;2.57;;
66270;SDS011;53063;39.614;8.814;2024-02-04T11:04:10;7.60;;;2.80;;
66270;SDS011;53063;39.614;8.814;2024-02-04T11:06:42;4.38;;;2.47;;
66270;SDS011;53063;39.614;8.814;2024-02-04T11:09:09;9.88;;;2.60;;
66270;SDS011;53063;39.614;8.814;2024-02-04T11:11:37;7.75;;;2.80;;
66270;SDS011;53063;39.614;8.814;2024-02-04T11:14:08;7.47;;;3.28;;
66270;SDS011;53063;39.614;8.814;2024-02-04T11:16:54;3.95;;;2.60;;
66270;SDS011;53063;39.614;8.814;2024-02-04T11:22:39;4.75;;;2.17;;
66270;SDS011;53063;39.614;8.814;2024-02-04T11:27:54;7.53;;;2.72;;
66270;SDS011;53063;39.614;8.814;2024-02-04T11:30:20;7.22;;;2.17;;
66270;SDS011;53063;39.614;8.814;2024-02-04T11:32:47;6.93;;;2.25;;
66270;SDS011;53063;39.614;8.814;2024-02-04T11:35:13;6.65;;;2.67;;
66270;SDS011;53063;39.614;8.814;2024-02-04T11:37:39;7.30;;;2.50;;
66270;SDS011;53063;39.614;8.814;2024-02-04T11:40:07;5.63;;;3.13;;
66270;SDS011;53063;39.614;8.814;2024-02-04T11:42:39;8.23;;;2.47;;
66270;SDS011;53063;39.614;8.814;2024-02-04T11:45:11;9.23;;;5.07;;
66270;SDS011;53063;39.614;8.814;2024-02-04T11:47:39;5.53;;;3.30;;
66270;SDS011;53063;39.614;8.814;2024-02-04T11:50:05;11.57;;;6.88;;
66270;SDS011;53063;39.614;8.814;2024-02-04T11:52:33;17.15;;;8.23;;
66270;SDS011;53063;39.614;8.814;2024-02-04T11:54:59;7.80;;;3.47;;
66270;SDS011;53063;39.614;8.814;2024-02-04T11:57:25;10.43;;;3.92;;
66270;SDS011;53063;39.614;8.814;2024-02-04T11:59:51;5.68;;;3.53;;
66270;SDS011;53063;39.614;8.814;2024-02-04T12:02:20;6.97;;;2.70;;
66270;SDS011;53063;39.614;8.814;2024-02-04T12:04:46;7.47;;;2.63;;
66270;SDS011;53063;39.614;8.814;2024-02-04T12:07:13;16.85;;;8.18;;
66270;SDS011;53063;39.614;8.814;2024-02-04T12:09:40;8.20;;;3.00;;
66270;SDS011;53063;39.614;8.814;2024-02-04T12:12:06;8.93;;;5.22;;
66270;SDS011;53063;39.614;8.814;2024-02-04T12:14:34;7.25;;;3.25;;
66270;SDS011;53063;39.614;8.814;2024-02-04T12:17:07;5.72;;;2.38;;
66270;SDS011;53063;39.614;8.814;2024-02-04T12:19:35;7.97;;;2.30;;
66270;SDS011;53063;39.614;8.814;2024-02-04T12:22:04;5.18;;;2.65;;
66270;SDS011;53063;39.614;8.814;2024-02-04T12:24:37;9.93;;;2.83;;
66270;SDS011;53063;39.614;8.814;2024-02-04T12:27:04;7.47;;;2.80;;
66270;SDS011;53063;39.614;8.814;2024-02-04T12:29:30;6.00;;;2.45;;
66270;SDS011;53063;39.614;8.814;2024-02-04T12:31:58;7.60;;;1.98;;
66270;SDS011;53063;39.614;8.814;2024-02-04T12:34:29;6.65;;;2.70;;
66270;SDS011;53063;39.614;8.814;2024-02-04T12:37:00;8.68;;;1.83;;
66270;SDS011;53063;39.614;8.814;2024-02-04T12:39:26;5.18;;;2.40;;
66270;SDS011;53063;39.614;8.814;2024-02-04T12:41:53;7.57;;;2.70;;
66270;SDS011;53063;39.614;8.814;2024-02-04T12:44:20;10.43;;;3.47;;
66270;SDS011;53063;39.614;8.814;2024-02-04T12:46:49;6.10;;;2.42;;
66270;SDS011;53063;39.614;8.814;2024-02-04T12:49:17;10.43;;;3.63;;
66270;SDS011;53063;39.614;8.814;2024-02-04T12:51:46;9.50;;;2.97;;
66270;SDS011;53063;39.614;8.814;2024-02-04T12:54:12;7.28;;;2.40;;
66270;SDS011;53063;39.614;8.814;2024-02-04T12:56:39;6.13;;;2.15;;
66270;SDS011;53063;39.614;8.814;2024-02-04T12:59:28;7.32;;;2.63;;
66270;SDS011;53063;39.614;8.814;2024-02-04T13:02:00;9.07;;;2.85;;
66270;SDS011;53063;39.614;8.814;2024-02-04T13:04:36;6.70;;;2.40;;
66270;SDS011;53063;39.614;8.814;2024-02-04T13:07:07;3.97;;;2.00;;
66270;SDS011;53063;39.614;8.814;2024-02-04T13:09:35;4.55;;;2.15;;
66270;SDS011;53063;39.614;8.814;2024-02-04T13:12:08;5.15;;;2.05;;
66270;SDS011;53063;39.614;8.814;2024-02-04T13:14:38;6.65;;;3.13;;
66270;SDS011;53063;39.614;8.814;2024-02-04T13:17:07;4.45;;;2.20;;
66270;SDS011;53063;39.614;8.814;2024-02-04T13:19:35;13.38;;;5.18;;
66270;SDS011;53063;39.614;8.814;2024-02-04T13:22:02;11.35;;;3.42;;
66270;SDS011;53063;39.614;8.814;2024-02-04T13:24:29;6.38;;;2.22;;
66270;SDS011;53063;39.614;8.814;2024-02-04T13:26:56;6.88;;;2.40;;
66270;SDS011;53063;39.614;8.814;2024-02-04T13:29:22;9.40;;;2.67;;
66270;SDS011;53063;39.614;8.814;2024-02-04T13:31:48;5.55;;;2.35;;
66270;SDS011;53063;39.614;8.814;2024-02-04T13:34:15;5.38;;;2.47;;
66270;SDS011;53063;39.614;8.814;2024-02-04T13:36:41;7.32;;;2.22;;
66270;SDS011;53063;39.614;8.814;2024-02-04T13:39:08;6.28;;;2.22;;
66270;SDS011;53063;39.614;8.814;2024-02-04T13:41:34;5.90;;;2.00;;
66270;SDS011;53063;39.614;8.814;2024-02-04T13:44:01;8.48;;;2.35;;
66270;SDS011;53063;39.614;8.814;2024-02-04T13:46:27;7.55;;;2.25;;
66270;SDS011;53063;39.614;8.814;2024-02-04T13:48:53;8.40;;;2.03;;
66270;SDS011;53063;39.614;8.814;2024-02-04T13:51:19;5.53;;;2.10;;
66270;SDS011;53063;39.614;8.814;2024-02-04T13:53:45;7.20;;;2.50;;
66270;SDS011;53063;39.614;8.814;2024-02-04T13:56:11;6.28;;;2.17;;
66270;SDS011;53063;39.614;8.814;2024-02-04T13:58:37;8.95;;;2.17;;
66270;SDS011;53063;39.614;8.814;2024-02-04T14:01:03;9.75;;;2.08;;
66270;SDS011;53063;39.614;8.814;2024-02-04T14:03:29;8.40;;;1.98;;
66270;SDS011;53063;39.614;8.814;2024-02-04T14:05:55;4.45;;;2.30;;
66270;SDS011;53063;39.614;8.814;2024-02-04T14:08:21;5.35;;;1.92;;
66270;SDS011;53063;39.614;8.814;2024-02-04T14:10:47;9.80;;;2.38;;
66270;SDS011;53063;39.614;8.814;2024-02-04T14:13:13;5.25;;;2.30;;
66270;SDS011;53063;39.614;8.814;2024-02-04T14:15:39;5.05;;;1.95;;
66270;SDS011;53063;39.614;8.814;2024-02-04T14:18:05;11.82;;;2.45;;
66270;SDS011;53063;39.614;8.814;2024-02-04T14:20:31;7.35;;;2.30;;
66270;SDS011;53063;39.614;8.814;2024-02-04T14:22:57;9.20;;;3.28;;
66270;SDS011;53063;39.614;8.814;2024-02-04T14:25:23;6.53;;;2.22;;
66270;SDS011;53063;39.614;8.814;2024-02-04T14:27:50;9.02;;;2.75;;
66270;SDS011;53063;39.614;8.814;2024-02-04T14:30:16;6.82;;;3.38;;
66270;SDS011;53063;39.614;8.814;2024-02-04T14:32:42;11.90;;;3.85;;
66270;SDS011;53063;39.614;8.814;2024-02-04T14:35:08;7.53;;;2.72;;
66270;SDS011;53063;39.614;8.814;2024-02-04T14:37:35;6.95;;;2.83;;
66270;SDS011;53063;39.614;8.814;2024-02-04T14:40:02;10.45;;;2.80;;
66270;SDS011;53063;39.614;8.814;2024-02-04T14:42:32;10.25;;;2.63;;
66270;SDS011;53063;39.614;8.814;2024-02-04T14:44:58;9.90;;;3.28;;
66270;SDS011;53063;39.614;8.814;2024-02-04T14:47:26;10.27;;;2.67;;
66270;SDS011;53063;39.614;8.814;2024-02-04T14:49:53;10.07;;;3.42;;
66270;SDS011;53063;39.614;8.814;2024-02-04T14:52:19;9.38;;;3.42;;